sensor_id;sensor_type;location;lat;lon;timestamp;temperature;humidity
18126;DHT22;53956;52.442;13.284;2023-09-08T00:01:59;24.40;84.60
18126;DHT22;53956;52.442;13.284;2023-09-08T00:04:25;24.40;84.20
18126;DHT22;53956;52.442;13.284;2023-09-08T00:06:52;24.30;84.00
18126;DHT22;53956;52.442;13.284;2023-09-08T00:09:18;24.30;84.80
18126;DHT22;53956;52.442;13.284;2023-09-08T00:11:45;24.40;84.20
18126;DHT22;53956;52.442;13.284;2023-09-08T00:14:13;24.40;84.30
18126;DHT22;53956;52.442;13.284;2023-09-08T00:16:40;24.40;84.50
18126;DHT22;53956;52.442;13.284;2023-09-08T00:19:09;24.40;84.00
18126;DHT22;53956;52.442;13.284;2023-09-08T00:21:36;24.40;84.80
18126;DHT22;53956;52.442;13.284;2023-09-08T00:24:04;24.30;84.80
18126;DHT22;53956;52.442;13.284;2023-09-08T00:26:31;24.30;84.80
18126;DHT22;53956;52.442;13.284;2023-09-08T00:28:57;24.30;85.40
18126;DHT22;53956;52.442;13.284;2023-09-08T00:31:25;24.20;85.10
18126;DHT22;53956;52.442;13.284;2023-09-08T00:33:52;24.20;85.90
18126;DHT22;53956;52.442;13.284;2023-09-08T00:36:18;24.20;85.40
18126;DHT22;53956;52.442;13.284;2023-09-08T00:38:45;24.10;85.90
18126;DHT22;53956;52.442;13.284;2023-09-08T00:41:12;24.10;85.50
18126;DHT22;53956;52.442;13.284;2023-09-08T00:43:38;24.00;85.70
18126;DHT22;53956;52.442;13.284;2023-09-08T00:46:06;24.10;85.60
18126;DHT22;53956;52.442;13.284;2023-09-08T00:48:34;24.10;85.40
18126;DHT22;53956;52.442;13.284;2023-09-08T00:51:03;24.10;85.90
18126;DHT22;53956;52.442;13.284;2023-09-08T00:53:31;24.00;86.30
18126;DHT22;53956;52.442;13.284;2023-09-08T00:55:59;23.90;86.30
18126;DHT22;53956;52.442;13.284;2023-09-08T00:58:25;24.00;86.20
18126;DHT22;53956;52.442;13.284;2023-09-08T01:00:53;24.10;85.80
18126;DHT22;53956;52.442;13.284;2023-09-08T01:03:20;23.90;86.30
18126;DHT22;53956;52.442;13.284;2023-09-08T01:05:48;23.90;86.20
18126;DHT22;53956;52.442;13.284;2023-09-08T01:08:15;23.90;87.00
18126;DHT22;53956;52.442;13.284;2023-09-08T01:10:42;23.90;86.40
18126;DHT22;53956;52.442;13.284;2023-09-08T01:13:09;23.70;86.50
18126;DHT22;53956;52.442;13.284;2023-09-08T01:15:36;23.70;86.90
18126;DHT22;53956;52.442;13.284;2023-09-08T01:18:03;23.70;86.10
18126;DHT22;53956;52.442;13.284;2023-09-08T01:23:21;23.70;87.00
18126;DHT22;53956;52.442;13.284;2023-09-08T01:25:52;23.60;87.20
18126;DHT22;53956;52.442;13.284;2023-09-08T01:28:21;23.40;89.20
18126;DHT22;53956;52.442;13.284;2023-09-08T01:30:49;23.50;88.80
18126;DHT22;53956;52.442;13.284;2023-09-08T01:33:17;23.50;89.30
18126;DHT22;53956;52.442;13.284;2023-09-08T01:35:44;23.50;89.30
18126;DHT22;53956;52.442;13.284;2023-09-08T01:38:11;23.40;89.20
18126;DHT22;53956;52.442;13.284;2023-09-08T01:40:37;23.40;89.30
18126;DHT22;53956;52.442;13.284;2023-09-08T01:43:06;23.60;89.10
18126;DHT22;53956;52.442;13.284;2023-09-08T01:45:32;23.50;89.10
18126;DHT22;53956;52.442;13.284;2023-09-08T01:47:59;23.20;89.70
18126;DHT22;53956;52.442;13.284;2023-09-08T01:50:26;23.40;89.30
18126;DHT22;53956;52.442;13.284;2023-09-08T01:52:52;23.40;89.20
18126;DHT22;53956;52.442;13.284;2023-09-08T01:55:19;23.40;89.50
18126;DHT22;53956;52.442;13.284;2023-09-08T01:57:46;23.30;90.30
18126;DHT22;53956;52.442;13.284;2023-09-08T02:00:14;23.30;90.00
18126;DHT22;53956;52.442;13.284;2023-09-08T02:02:41;23.20;89.60
18126;DHT22;53956;52.442;13.284;2023-09-08T02:05:08;23.10;90.10
18126;DHT22;53956;52.442;13.284;2023-09-08T02:07:35;23.00;90.70
18126;DHT22;53956;52.442;13.284;2023-09-08T02:10:01;23.10;90.70
18126;DHT22;53956;52.442;13.284;2023-09-08T02:12:28;22.90;91.10
18126;DHT22;53956;52.442;13.284;2023-09-08T02:14:55;22.90;90.70
18126;DHT22;53956;52.442;13.284;2023-09-08T02:17:23;23.00;90.80
18126;DHT22;53956;52.442;13.284;2023-09-08T02:19:50;22.80;91.00
18126;DHT22;53956;52.442;13.284;2023-09-08T02:22:16;22.70;91.10
18126;DHT22;53956;52.442;13.284;2023-09-08T02:24:43;22.80;91.40
18126;DHT22;53956;52.442;13.284;2023-09-08T02:27:10;22.70;91.50
18126;DHT22;53956;52.442;13.284;2023-09-08T02:29:36;22.90;91.20
18126;DHT22;53956;52.442;13.284;2023-09-08T02:32:04;22.70;91.30
18126;DHT22;53956;52.442;13.284;2023-09-08T02:34:34;22.60;91.40
18126;DHT22;53956;52.442;13.284;2023-09-08T02:37:03;22.70;91.50
18126;DHT22;53956;52.442;13.284;2023-09-08T02:39:29;22.70;91.40
18126;DHT22;53956;52.442;13.284;2023-09-08T02:41:56;22.60;91.70
18126;DHT22;53956;52.442;13.284;2023-09-08T02:44:22;22.30;93.10
18126;DHT22;53956;52.442;13.284;2023-09-08T02:46:51;22.50;92.70
18126;DHT22;53956;52.442;13.284;2023-09-08T02:49:18;22.60;91.90
18126;DHT22;53956;52.442;13.284;2023-09-08T02:51:46;22.70;91.90
18126;DHT22;53956;52.442;13.284;2023-09-08T02:54:12;22.80;91.40
18126;DHT22;53956;52.442;13.284;2023-09-08T02:56:39;22.70;91.40
18126;DHT22;53956;52.442;13.284;2023-09-08T02:59:05;22.70;91.80
18126;DHT22;53956;52.442;13.284;2023-09-08T03:01:32;22.60;91.90
18126;DHT22;53956;52.442;13.284;2023-09-08T03:03:59;22.60;92.10
18126;DHT22;53956;52.442;13.284;2023-09-08T03:06:25;22.60;92.40
18126;DHT22;53956;52.442;13.284;2023-09-08T03:08:53;22.80;91.80
18126;DHT22;53956;52.442;13.284;2023-09-08T03:11:20;22.60;92.40
18126;DHT22;53956;52.442;13.284;2023-09-08T03:13:46;22.50;92.00
18126;DHT22;53956;52.442;13.284;2023-09-08T03:16:13;22.20;93.60
18126;DHT22;53956;52.442;13.284;2023-09-08T03:18:39;22.20;93.50
18126;DHT22;53956;52.442;13.284;2023-09-08T03:21:06;22.20;94.20
18126;DHT22;53956;52.442;13.284;2023-09-08T03:23:37;22.10;94.10
18126;DHT22;53956;52.442;13.284;2023-09-08T03:26:06;22.10;94.10
18126;DHT22;53956;52.442;13.284;2023-09-08T03:28:33;22.30;92.70
18126;DHT22;53956;52.442;13.284;2023-09-08T03:31:00;22.40;93.10
18126;DHT22;53956;52.442;13.284;2023-09-08T03:33:29;22.20;93.60
18126;DHT22;53956;52.442;13.284;2023-09-08T03:35:55;22.00;94.70
18126;DHT22;53956;52.442;13.284;2023-09-08T03:38:22;22.30;93.40
18126;DHT22;53956;52.442;13.284;2023-09-08T03:40:49;22.50;92.80
18126;DHT22;53956;52.442;13.284;2023-09-08T03:43:18;22.40;93.40
18126;DHT22;53956;52.442;13.284;2023-09-08T03:45:44;22.30;93.30
18126;DHT22;53956;52.442;13.284;2023-09-08T03:48:12;22.40;92.80
18126;DHT22;53956;52.442;13.284;2023-09-08T03:50:39;22.00;93.90
18126;DHT22;53956;52.442;13.284;2023-09-08T03:53:05;22.20;94.00
18126;DHT22;53956;52.442;13.284;2023-09-08T03:55:34;22.10;94.00
18126;DHT22;53956;52.442;13.284;2023-09-08T03:58:00;22.00;94.40
18126;DHT22;53956;52.442;13.284;2023-09-08T04:00:29;22.10;94.40
18126;DHT22;53956;52.442;13.284;2023-09-08T04:02:55;22.40;93.90
18126;DHT22;53956;52.442;13.284;2023-09-08T04:05:22;22.20;94.00
18126;DHT22;53956;52.442;13.284;2023-09-08T04:07:49;22.30;94.20
18126;DHT22;53956;52.442;13.284;2023-09-08T04:10:17;22.30;93.70
18126;DHT22;53956;52.442;13.284;2023-09-08T04:12:43;22.20;94.20
18126;DHT22;53956;52.442;13.284;2023-09-08T04:15:10;22.30;94.10
18126;DHT22;53956;52.442;13.284;2023-09-08T04:17:39;22.40;93.80
18126;DHT22;53956;52.442;13.284;2023-09-08T04:20:07;22.40;93.80
18126;DHT22;53956;52.442;13.284;2023-09-08T04:22:34;22.40;94.10
18126;DHT22;53956;52.442;13.284;2023-09-08T04:25:01;22.50;93.90
18126;DHT22;53956;52.442;13.284;2023-09-08T04:27:28;22.60;93.30
18126;DHT22;53956;52.442;13.284;2023-09-08T04:29:55;22.20;94.40
18126;DHT22;53956;52.442;13.284;2023-09-08T04:32:22;22.30;94.00
18126;DHT22;53956;52.442;13.284;2023-09-08T04:34:49;22.30;93.90
18126;DHT22;53956;52.442;13.284;2023-09-08T04:37:16;22.30;94.40
18126;DHT22;53956;52.442;13.284;2023-09-08T04:39:43;22.30;93.90
18126;DHT22;53956;52.442;13.284;2023-09-08T04:42:11;22.30;94.50
18126;DHT22;53956;52.442;13.284;2023-09-08T04:44:39;22.30;94.10
18126;DHT22;53956;52.442;13.284;2023-09-08T04:47:06;22.30;94.00
18126;DHT22;53956;52.442;13.284;2023-09-08T04:49:33;22.30;94.50
18126;DHT22;53956;52.442;13.284;2023-09-08T04:52:01;22.30;93.70
18126;DHT22;53956;52.442;13.284;2023-09-08T04:54:29;22.30;94.20
18126;DHT22;53956;52.442;13.284;2023-09-08T04:56:57;22.40;93.90
18126;DHT22;53956;52.442;13.284;2023-09-08T04:59:24;22.10;95.10
18126;DHT22;53956;52.442;13.284;2023-09-08T05:01:53;21.80;95.50
18126;DHT22;53956;52.442;13.284;2023-09-08T05:04:20;21.60;96.70
18126;DHT22;53956;52.442;13.284;2023-09-08T05:06:47;21.60;97.00
18126;DHT22;53956;52.442;13.284;2023-09-08T05:09:17;21.60;96.80
18126;DHT22;53956;52.442;13.284;2023-09-08T05:11:44;21.30;98.70
18126;DHT22;53956;52.442;13.284;2023-09-08T05:14:10;21.60;97.50
18126;DHT22;53956;52.442;13.284;2023-09-08T05:16:37;21.70;96.80
18126;DHT22;53956;52.442;13.284;2023-09-08T05:19:11;21.80;96.60
18126;DHT22;53956;52.442;13.284;2023-09-08T05:21:38;21.70;96.80
18126;DHT22;53956;52.442;13.284;2023-09-08T05:24:07;21.70;96.70
18126;DHT22;53956;52.442;13.284;2023-09-08T05:26:37;21.70;97.70
18126;DHT22;53956;52.442;13.284;2023-09-08T05:29:04;21.80;97.40
18126;DHT22;53956;52.442;13.284;2023-09-08T05:31:31;21.60;98.00
18126;DHT22;53956;52.442;13.284;2023-09-08T05:33:58;21.50;98.50
18126;DHT22;53956;52.442;13.284;2023-09-08T05:36:25;21.60;98.80
18126;DHT22;53956;52.442;13.284;2023-09-08T05:38:52;21.60;98.40
18126;DHT22;53956;52.442;13.284;2023-09-08T05:41:19;22.80;93.80
18126;DHT22;53956;52.442;13.284;2023-09-08T05:43:47;23.80;89.30
18126;DHT22;53956;52.442;13.284;2023-09-08T05:46:14;24.80;85.30
18126;DHT22;53956;52.442;13.284;2023-09-08T05:48:41;25.30;83.80
18126;DHT22;53956;52.442;13.284;2023-09-08T05:51:08;26.00;82.30
18126;DHT22;53956;52.442;13.284;2023-09-08T05:53:36;26.70;78.50
18126;DHT22;53956;52.442;13.284;2023-09-08T05:56:06;27.10;77.20
18126;DHT22;53956;52.442;13.284;2023-09-08T05:58:33;27.50;76.70
18126;DHT22;53956;52.442;13.284;2023-09-08T06:01:02;27.90;74.50
18126;DHT22;53956;52.442;13.284;2023-09-08T06:03:30;28.40;73.50
18126;DHT22;53956;52.442;13.284;2023-09-08T06:05:57;28.70;72.10
18126;DHT22;53956;52.442;13.284;2023-09-08T06:08:24;29.10;70.60
18126;DHT22;53956;52.442;13.284;2023-09-08T06:10:51;28.90;71.50
18126;DHT22;53956;52.442;13.284;2023-09-08T06:13:19;29.00;70.30
18126;DHT22;53956;52.442;13.284;2023-09-08T06:15:46;29.70;68.30
18126;DHT22;53956;52.442;13.284;2023-09-08T06:18:14;30.10;66.70
18126;DHT22;53956;52.442;13.284;2023-09-08T06:20:45;29.10;68.80
18126;DHT22;53956;52.442;13.284;2023-09-08T06:23:12;29.10;68.90
18126;DHT22;53956;52.442;13.284;2023-09-08T06:25:39;29.80;67.30
18126;DHT22;53956;52.442;13.284;2023-09-08T06:28:06;30.10;65.50
18126;DHT22;53956;52.442;13.284;2023-09-08T06:30:33;30.60;65.40
18126;DHT22;53956;52.442;13.284;2023-09-08T06:33:00;31.20;63.10
18126;DHT22;53956;52.442;13.284;2023-09-08T06:35:30;31.40;63.70
18126;DHT22;53956;52.442;13.284;2023-09-08T06:37:56;31.60;62.90
18126;DHT22;53956;52.442;13.284;2023-09-08T06:40:24;31.50;62.40
18126;DHT22;53956;52.442;13.284;2023-09-08T06:42:51;32.10;61.30
18126;DHT22;53956;52.442;13.284;2023-09-08T06:45:27;32.30;60.80
18126;DHT22;53956;52.442;13.284;2023-09-08T06:47:54;32.50;59.90
18126;DHT22;53956;52.442;13.284;2023-09-08T06:50:21;32.70;59.90
18126;DHT22;53956;52.442;13.284;2023-09-08T06:52:49;33.00;59.90
18126;DHT22;53956;52.442;13.284;2023-09-08T06:55:16;33.00;59.10
18126;DHT22;53956;52.442;13.284;2023-09-08T06:57:44;32.80;59.50
18126;DHT22;53956;52.442;13.284;2023-09-08T07:00:12;33.00;59.30
18126;DHT22;53956;52.442;13.284;2023-09-08T07:02:40;33.30;58.60
18126;DHT22;53956;52.442;13.284;2023-09-08T07:05:07;33.30;57.50
18126;DHT22;53956;52.442;13.284;2023-09-08T07:07:35;33.40;58.20
18126;DHT22;53956;52.442;13.284;2023-09-08T07:10:04;33.50;56.90
18126;DHT22;53956;52.442;13.284;2023-09-08T07:12:31;33.50;58.00
18126;DHT22;53956;52.442;13.284;2023-09-08T07:14:58;33.50;57.80
18126;DHT22;53956;52.442;13.284;2023-09-08T07:17:25;33.70;57.70
18126;DHT22;53956;52.442;13.284;2023-09-08T07:19:52;33.80;57.80
18126;DHT22;53956;52.442;13.284;2023-09-08T07:22:20;34.10;57.10
18126;DHT22;53956;52.442;13.284;2023-09-08T07:24:47;34.20;56.20
18126;DHT22;53956;52.442;13.284;2023-09-08T07:27:17;34.20;56.70
18126;DHT22;53956;52.442;13.284;2023-09-08T07:29:46;34.60;54.90
18126;DHT22;53956;52.442;13.284;2023-09-08T07:32:13;33.90;56.40
18126;DHT22;53956;52.442;13.284;2023-09-08T07:34:40;34.10;56.50
18126;DHT22;53956;52.442;13.284;2023-09-08T07:37:07;34.20;57.00
18126;DHT22;53956;52.442;13.284;2023-09-08T07:39:34;34.30;57.10
18126;DHT22;53956;52.442;13.284;2023-09-08T07:42:02;34.40;56.40
18126;DHT22;53956;52.442;13.284;2023-09-08T07:44:31;34.80;54.30
18126;DHT22;53956;52.442;13.284;2023-09-08T07:46:58;34.10;55.80
18126;DHT22;53956;52.442;13.284;2023-09-08T07:49:25;34.00;55.80
18126;DHT22;53956;52.442;13.284;2023-09-08T07:51:52;34.30;56.60
18126;DHT22;53956;52.442;13.284;2023-09-08T07:54:18;34.50;56.40
18126;DHT22;53956;52.442;13.284;2023-09-08T07:56:45;32.80;57.50
18126;DHT22;53956;52.442;13.284;2023-09-08T07:59:11;33.20;57.00
18126;DHT22;53956;52.442;13.284;2023-09-08T08:01:39;33.40;57.20
18126;DHT22;53956;52.442;13.284;2023-09-08T08:04:06;33.20;56.90
18126;DHT22;53956;52.442;13.284;2023-09-08T08:06:32;32.70;58.10
18126;DHT22;53956;52.442;13.284;2023-09-08T08:08:59;32.90;58.70
18126;DHT22;53956;52.442;13.284;2023-09-08T08:11:26;33.10;58.30
18126;DHT22;53956;52.442;13.284;2023-09-08T08:13:53;32.50;59.10
18126;DHT22;53956;52.442;13.284;2023-09-08T08:16:22;32.30;58.60
18126;DHT22;53956;52.442;13.284;2023-09-08T08:18:50;32.30;59.10
18126;DHT22;53956;52.442;13.284;2023-09-08T08:21:16;32.50;59.40
18126;DHT22;53956;52.442;13.284;2023-09-08T08:23:43;32.70;58.80
18126;DHT22;53956;52.442;13.284;2023-09-08T08:26:10;32.20;60.40
18126;DHT22;53956;52.442;13.284;2023-09-08T08:28:36;30.80;61.40
18126;DHT22;53956;52.442;13.284;2023-09-08T08:31:03;31.00;63.20
18126;DHT22;53956;52.442;13.284;2023-09-08T08:33:30;31.60;62.20
18126;DHT22;53956;52.442;13.284;2023-09-08T08:35:58;31.30;62.20
18126;DHT22;53956;52.442;13.284;2023-09-08T08:38:25;31.30;63.30
18126;DHT22;53956;52.442;13.284;2023-09-08T08:40:52;31.60;62.30
18126;DHT22;53956;52.442;13.284;2023-09-08T08:43:19;31.60;60.80
18126;DHT22;53956;52.442;13.284;2023-09-08T08:45:46;30.90;63.10
18126;DHT22;53956;52.442;13.284;2023-09-08T08:48:15;30.40;62.60
18126;DHT22;53956;52.442;13.284;2023-09-08T08:50:42;29.10;65.00
18126;DHT22;53956;52.442;13.284;2023-09-08T08:53:12;29.30;66.10
18126;DHT22;53956;52.442;13.284;2023-09-08T08:55:39;29.30;65.80
18126;DHT22;53956;52.442;13.284;2023-09-08T08:58:06;30.10;64.40
18126;DHT22;53956;52.442;13.284;2023-09-08T09:00:34;30.00;64.80
18126;DHT22;53956;52.442;13.284;2023-09-08T09:03:01;30.70;65.40
18126;DHT22;53956;52.442;13.284;2023-09-08T09:05:30;31.00;64.90
18126;DHT22;53956;52.442;13.284;2023-09-08T09:07:58;30.30;64.00
18126;DHT22;53956;52.442;13.284;2023-09-08T09:10:26;30.70;65.10
18126;DHT22;53956;52.442;13.284;2023-09-08T09:12:53;30.60;63.50
18126;DHT22;53956;52.442;13.284;2023-09-08T09:15:28;30.70;63.10
18126;DHT22;53956;52.442;13.284;2023-09-08T09:18:02;30.40;64.10
18126;DHT22;53956;52.442;13.284;2023-09-08T09:20:29;30.40;65.60
18126;DHT22;53956;52.442;13.284;2023-09-08T09:22:56;30.50;63.70
18126;DHT22;53956;52.442;13.284;2023-09-08T09:25:23;30.10;64.90
18126;DHT22;53956;52.442;13.284;2023-09-08T09:27:56;29.70;64.30
18126;DHT22;53956;52.442;13.284;2023-09-08T09:30:23;29.20;66.10
18126;DHT22;53956;52.442;13.284;2023-09-08T09:33:01;29.60;67.70
18126;DHT22;53956;52.442;13.284;2023-09-08T09:35:41;30.00;64.90
18126;DHT22;53956;52.442;13.284;2023-09-08T09:38:08;29.70;65.40
18126;DHT22;53956;52.442;13.284;2023-09-08T09:40:35;29.20;66.80
18126;DHT22;53956;52.442;13.284;2023-09-08T09:43:04;29.30;67.10
18126;DHT22;53956;52.442;13.284;2023-09-08T09:45:31;29.60;66.80
18126;DHT22;53956;52.442;13.284;2023-09-08T09:47:58;29.70;66.50
18126;DHT22;53956;52.442;13.284;2023-09-08T09:50:29;29.70;65.30
18126;DHT22;53956;52.442;13.284;2023-09-08T09:52:57;29.60;65.40
18126;DHT22;53956;52.442;13.284;2023-09-08T09:55:26;29.50;65.20
18126;DHT22;53956;52.442;13.284;2023-09-08T09:57:56;29.60;65.90
18126;DHT22;53956;52.442;13.284;2023-09-08T10:00:25;29.70;65.50
18126;DHT22;53956;52.442;13.284;2023-09-08T10:02:53;29.70;65.50
18126;DHT22;53956;52.442;13.284;2023-09-08T10:05:20;29.90;67.20
18126;DHT22;53956;52.442;13.284;2023-09-08T10:07:47;30.10;65.00
18126;DHT22;53956;52.442;13.284;2023-09-08T10:10:15;30.10;65.70
18126;DHT22;53956;52.442;13.284;2023-09-08T10:12:43;30.00;64.40
18126;DHT22;53956;52.442;13.284;2023-09-08T10:15:11;29.70;64.50
18126;DHT22;53956;52.442;13.284;2023-09-08T10:17:40;29.30;64.30
18126;DHT22;53956;52.442;13.284;2023-09-08T10:20:09;29.50;66.20
18126;DHT22;53956;52.442;13.284;2023-09-08T10:22:41;29.50;65.00
18126;DHT22;53956;52.442;13.284;2023-09-08T10:25:09;29.20;65.20
18126;DHT22;53956;52.442;13.284;2023-09-08T10:27:36;29.50;64.50
18126;DHT22;53956;52.442;13.284;2023-09-08T10:30:05;29.50;65.00
18126;DHT22;53956;52.442;13.284;2023-09-08T10:32:33;29.40;65.30
18126;DHT22;53956;52.442;13.284;2023-09-08T10:35:02;29.60;65.40
18126;DHT22;53956;52.442;13.284;2023-09-08T10:37:30;30.00;64.30
18126;DHT22;53956;52.442;13.284;2023-09-08T10:40:20;29.70;64.00
18126;DHT22;53956;52.442;13.284;2023-09-08T10:42:47;29.60;64.00
18126;DHT22;53956;52.442;13.284;2023-09-08T10:45:16;29.50;62.80
18126;DHT22;53956;52.442;13.284;2023-09-08T10:47:55;29.40;64.20
18126;DHT22;53956;52.442;13.284;2023-09-08T10:50:30;29.60;65.00
18126;DHT22;53956;52.442;13.284;2023-09-08T10:53:07;29.70;65.00
18126;DHT22;53956;52.442;13.284;2023-09-08T10:55:37;29.70;64.10
18126;DHT22;53956;52.442;13.284;2023-09-08T10:58:06;29.30;62.50
18126;DHT22;53956;52.442;13.284;2023-09-08T11:00:47;29.20;63.50
18126;DHT22;53956;52.442;13.284;2023-09-08T11:03:25;29.40;63.40
18126;DHT22;53956;52.442;13.284;2023-09-08T11:05:54;29.40;62.50
18126;DHT22;53956;52.442;13.284;2023-09-08T11:08:22;29.50;62.90
18126;DHT22;53956;52.442;13.284;2023-09-08T11:10:48;29.60;62.30
18126;DHT22;53956;52.442;13.284;2023-09-08T11:13:16;29.70;61.90
18126;DHT22;53956;52.442;13.284;2023-09-08T11:15:43;29.50;60.70
18126;DHT22;53956;52.442;13.284;2023-09-08T11:18:10;29.40;60.70
18126;DHT22;53956;52.442;13.284;2023-09-08T11:20:37;29.50;60.90
18126;DHT22;53956;52.442;13.284;2023-09-08T11:23:06;29.70;61.80
18126;DHT22;53956;52.442;13.284;2023-09-08T11:25:33;29.60;61.60
18126;DHT22;53956;52.442;13.284;2023-09-08T11:28:00;29.50;61.50
18126;DHT22;53956;52.442;13.284;2023-09-08T11:30:28;29.70;61.10
18126;DHT22;53956;52.442;13.284;2023-09-08T11:32:55;29.60;61.90
18126;DHT22;53956;52.442;13.284;2023-09-08T11:35:26;29.70;62.80
18126;DHT22;53956;52.442;13.284;2023-09-08T11:37:59;29.60;60.50
18126;DHT22;53956;52.442;13.284;2023-09-08T11:40:27;29.50;61.30
18126;DHT22;53956;52.442;13.284;2023-09-08T11:42:54;29.50;60.70
18126;DHT22;53956;52.442;13.284;2023-09-08T11:45:21;29.50;64.10
18126;DHT22;53956;52.442;13.284;2023-09-08T11:47:49;29.30;61.50
18126;DHT22;53956;52.442;13.284;2023-09-08T11:50:18;29.50;62.60
18126;DHT22;53956;52.442;13.284;2023-09-08T11:52:46;29.40;61.30
18126;DHT22;53956;52.442;13.284;2023-09-08T11:55:14;29.60;61.00
18126;DHT22;53956;52.442;13.284;2023-09-08T11:57:45;29.50;60.80
18126;DHT22;53956;52.442;13.284;2023-09-08T12:00:12;29.60;60.40
18126;DHT22;53956;52.442;13.284;2023-09-08T12:02:42;29.60;61.10
18126;DHT22;53956;52.442;13.284;2023-09-08T12:05:11;29.50;60.50
18126;DHT22;53956;52.442;13.284;2023-09-08T12:07:38;29.60;60.70
18126;DHT22;53956;52.442;13.284;2023-09-08T12:10:09;29.50;60.50
18126;DHT22;53956;52.442;13.284;2023-09-08T12:12:43;29.30;59.80
18126;DHT22;53956;52.442;13.284;2023-09-08T12:15:10;29.40;59.90
18126;DHT22;53956;52.442;13.284;2023-09-08T12:17:47;29.20;60.30
18126;DHT22;53956;52.442;13.284;2023-09-08T12:20:15;29.40;61.00
18126;DHT22;53956;52.442;13.284;2023-09-08T12:22:47;29.40;62.00
18126;DHT22;53956;52.442;13.284;2023-09-08T12:25:15;29.60;62.90
18126;DHT22;53956;52.442;13.284;2023-09-08T12:27:44;29.60;62.80
18126;DHT22;53956;52.442;13.284;2023-09-08T12:30:17;29.60;61.30
18126;DHT22;53956;52.442;13.284;2023-09-08T12:32:46;29.60;60.40
18126;DHT22;53956;52.442;13.284;2023-09-08T12:35:18;29.50;59.40
18126;DHT22;53956;52.442;13.284;2023-09-08T12:37:45;29.30;59.50
18126;DHT22;53956;52.442;13.284;2023-09-08T12:40:12;29.40;60.10
18126;DHT22;53956;52.442;13.284;2023-09-08T12:42:40;29.40;60.60
18126;DHT22;53956;52.442;13.284;2023-09-08T12:45:09;29.50;59.80
18126;DHT22;53956;52.442;13.284;2023-09-08T12:47:36;29.40;59.40
18126;DHT22;53956;52.442;13.284;2023-09-08T12:50:02;29.30;60.10
18126;DHT22;53956;52.442;13.284;2023-09-08T12:52:29;29.40;60.70
18126;DHT22;53956;52.442;13.284;2023-09-08T12:54:57;29.40;60.20
18126;DHT22;53956;52.442;13.284;2023-09-08T12:57:23;29.30;60.40
18126;DHT22;53956;52.442;13.284;2023-09-08T12:59:50;29.20;61.30
18126;DHT22;53956;52.442;13.284;2023-09-08T13:02:20;29.20;60.70
18126;DHT22;53956;52.442;13.284;2023-09-08T13:04:46;29.30;61.20
18126;DHT22;53956;52.442;13.284;2023-09-08T13:07:14;29.30;61.00
18126;DHT22;53956;52.442;13.284;2023-09-08T13:09:40;29.30;61.10
18126;DHT22;53956;52.442;13.284;2023-09-08T13:12:07;29.20;61.40
18126;DHT22;53956;52.442;13.284;2023-09-08T13:14:35;29.30;61.30
18126;DHT22;53956;52.442;13.284;2023-09-08T13:17:02;29.30;61.20
18126;DHT22;53956;52.442;13.284;2023-09-08T13:19:31;29.30;62.20
18126;DHT22;53956;52.442;13.284;2023-09-08T13:21:57;29.40;61.30
18126;DHT22;53956;52.442;13.284;2023-09-08T13:24:24;29.30;62.00
18126;DHT22;53956;52.442;13.284;2023-09-08T13:26:51;29.40;61.60
18126;DHT22;53956;52.442;13.284;2023-09-08T13:29:17;29.50;61.70
18126;DHT22;53956;52.442;13.284;2023-09-08T13:31:44;29.30;61.30
18126;DHT22;53956;52.442;13.284;2023-09-08T13:34:11;29.60;63.00
18126;DHT22;53956;52.442;13.284;2023-09-08T13:36:38;29.60;63.40
18126;DHT22;53956;52.442;13.284;2023-09-08T13:39:05;29.50;61.70
18126;DHT22;53956;52.442;13.284;2023-09-08T13:41:47;29.50;61.70
18126;DHT22;53956;52.442;13.284;2023-09-08T13:44:16;29.40;61.60
18126;DHT22;53956;52.442;13.284;2023-09-08T13:46:43;29.40;61.50
18126;DHT22;53956;52.442;13.284;2023-09-08T13:49:09;29.50;61.20
18126;DHT22;53956;52.442;13.284;2023-09-08T13:51:36;29.40;61.40
18126;DHT22;53956;52.442;13.284;2023-09-08T13:54:05;29.50;60.90
18126;DHT22;53956;52.442;13.284;2023-09-08T13:56:31;29.50;62.30
18126;DHT22;53956;52.442;13.284;2023-09-08T13:58:58;29.40;62.80
18126;DHT22;53956;52.442;13.284;2023-09-08T14:01:25;29.60;62.00
18126;DHT22;53956;52.442;13.284;2023-09-08T14:03:53;29.50;60.90
18126;DHT22;53956;52.442;13.284;2023-09-08T14:06:21;29.40;60.70
18126;DHT22;53956;52.442;13.284;2023-09-08T14:08:47;29.30;61.00
18126;DHT22;53956;52.442;13.284;2023-09-08T14:11:15;29.40;60.50
18126;DHT22;53956;52.442;13.284;2023-09-08T14:13:42;29.30;60.80
18126;DHT22;53956;52.442;13.284;2023-09-08T14:16:09;29.40;61.20
18126;DHT22;53956;52.442;13.284;2023-09-08T14:18:36;29.50;61.20
18126;DHT22;53956;52.442;13.284;2023-09-08T14:21:02;29.30;60.40
18126;DHT22;53956;52.442;13.284;2023-09-08T14:23:29;29.40;61.30
18126;DHT22;53956;52.442;13.284;2023-09-08T14:25:56;29.50;61.50
18126;DHT22;53956;52.442;13.284;2023-09-08T14:28:24;29.50;61.50
18126;DHT22;53956;52.442;13.284;2023-09-08T14:30:51;29.50;62.30
18126;DHT22;53956;52.442;13.284;2023-09-08T14:33:18;29.50;60.90
18126;DHT22;53956;52.442;13.284;2023-09-08T14:35:45;29.50;61.80
18126;DHT22;53956;52.442;13.284;2023-09-08T14:38:16;29.40;59.20
18126;DHT22;53956;52.442;13.284;2023-09-08T14:40:43;29.40;60.10
18126;DHT22;53956;52.442;13.284;2023-09-08T14:43:10;29.40;59.70
18126;DHT22;53956;52.442;13.284;2023-09-08T14:45:38;29.40;60.10
18126;DHT22;53956;52.442;13.284;2023-09-08T14:48:05;29.50;60.00
18126;DHT22;53956;52.442;13.284;2023-09-08T14:50:32;29.40;60.60
18126;DHT22;53956;52.442;13.284;2023-09-08T14:52:59;29.30;60.70
18126;DHT22;53956;52.442;13.284;2023-09-08T14:55:25;29.40;59.70
18126;DHT22;53956;52.442;13.284;2023-09-08T14:57:52;29.40;60.20
18126;DHT22;53956;52.442;13.284;2023-09-08T15:00:19;29.40;60.00
18126;DHT22;53956;52.442;13.284;2023-09-08T15:02:47;29.30;59.80
18126;DHT22;53956;52.442;13.284;2023-09-08T15:05:14;29.40;60.30
18126;DHT22;53956;52.442;13.284;2023-09-08T15:07:40;29.40;59.80
18126;DHT22;53956;52.442;13.284;2023-09-08T15:10:07;29.40;59.50
18126;DHT22;53956;52.442;13.284;2023-09-08T15:12:34;29.40;60.40
18126;DHT22;53956;52.442;13.284;2023-09-08T15:15:01;29.30;60.40
18126;DHT22;53956;52.442;13.284;2023-09-08T15:17:27;29.20;59.70
18126;DHT22;53956;52.442;13.284;2023-09-08T15:19:55;29.30;60.50
18126;DHT22;53956;52.442;13.284;2023-09-08T15:22:22;29.30;60.30